Time;durP1;ratioP1;P1;durP2;ratioP2;P2;SDS_P1;SDS_P2;PMS_P1;PMS_P2;Temp;Humidity;BMP_temperature;BMP_pressure;BME280_temperature;BME280_humidity;BME280_pressure;Samples;Min_cycle;Max_cycle;Signal;HPM_P1;HPM_P2
2021/05/25 00:02:21;;;;;;;2.65;2.45;;;10.60;99.90;;;;;;5045720;28;20046;-67
2021/05/25 00:04:49;;;;;;;3.97;2.90;;;10.50;99.90;;;;;;5045698;28;20446;-67
2021/05/25 00:07:16;;;;;;;3.00;2.60;;;10.50;99.90;;;;;;5047207;28;20049;-67
2021/05/25 00:09:43;;;;;;;3.08;2.60;;;10.50;99.90;;;;;;5047454;28;20385;-67
2021/05/25 00:12:18;;;;;;;2.95;2.58;;;10.50;99.90;;;;;;5044767;28;20475;-67
2021/05/25 00:14:45;;;;;;;3.60;2.72;;;10.50;99.90;;;;;;5045441;28;20084;-67
2021/05/25 00:17:13;;;;;;;3.58;2.83;;;10.50;99.90;;;;;;5042906;28;20098;-67
2021/05/25 00:19:40;;;;;;;3.83;2.80;;;10.50;99.90;;;;;;5046707;28;20041;-67
2021/05/25 00:22:08;;;;;;;3.45;2.63;;;10.50;99.90;;;;;;5049152;28;20454;-67
2021/05/25 00:24:36;;;;;;;4.25;2.78;;;10.40;99.90;;;;;;5045040;28;20049;-66
2021/05/25 00:27:07;;;;;;;3.58;2.50;;;10.30;99.90;;;;;;5047898;28;20455;-66
2021/05/25 00:29:35;;;;;;;3.95;2.83;;;10.30;99.90;;;;;;5046603;28;20417;-68
2021/05/25 00:32:02;;;;;;;2.90;2.60;;;10.30;99.90;;;;;;5047959;28;20106;-66
2021/05/25 00:34:29;;;;;;;4.07;2.70;;;10.30;99.90;;;;;;5049482;28;20084;-66
2021/05/25 00:36:57;;;;;;;3.80;2.70;;;10.30;99.90;;;;;;5046317;28;20098;-66
2021/05/25 00:39:24;;;;;;;3.45;2.85;;;10.30;99.90;;;;;;5044241;28;20041;-66
2021/05/25 00:41:51;;;;;;;3.42;2.90;;;10.30;99.90;;;;;;5045330;28;20492;-66
2021/05/25 00:44:19;;;;;;;3.92;2.75;;;10.30;99.90;;;;;;5027690;28;20095;-66
2021/05/25 00:46:46;;;;;;;3.28;2.75;;;10.30;99.90;;;;;;5043639;28;20455;-66
2021/05/25 00:49:14;;;;;;;6.07;3.17;;;10.30;99.90;;;;;;5046797;28;20064;-66
2021/05/25 00:51:41;;;;;;;4.15;2.80;;;10.20;99.90;;;;;;5042785;28;20045;-66
2021/05/25 00:54:08;;;;;;;3.97;2.90;;;10.10;99.90;;;;;;5046655;28;20079;-66
2021/05/25 00:56:36;;;;;;;4.70;2.88;;;10.20;99.90;;;;;;5047539;28;20045;-66
2021/05/25 00:59:03;;;;;;;5.35;3.15;;;10.20;99.90;;;;;;5047263;28;20106;-66
2021/05/25 01:01:31;;;;;;;3.00;2.70;;;10.20;99.90;;;;;;5048452;28;20056;-66
2021/05/25 01:03:58;;;;;;;3.42;3.00;;;10.20;99.90;;;;;;5052460;28;20048;-66
2021/05/25 01:06:26;;;;;;;3.72;2.97;;;10.20;99.90;;;;;;5052104;28;20072;-67
2021/05/25 01:08:54;;;;;;;4.57;2.97;;;10.10;99.90;;;;;;5051881;28;20057;-66
2021/05/25 01:11:21;;;;;;;4.10;2.90;;;10.10;99.90;;;;;;5050664;28;20045;-66
2021/05/25 01:13:52;;;;;;;3.60;3.00;;;10.10;99.90;;;;;;5050924;28;20063;-66
2021/05/25 01:16:26;;;;;;;4.25;3.10;;;10.20;99.90;;;;;;5050348;28;20059;-66
2021/05/25 01:18:55;;;;;;;3.17;2.88;;;10.20;99.90;;;;;;5051322;28;20507;-67
2021/05/25 01:21:24;;;;;;;4.30;3.15;;;10.20;99.90;;;;;;5063277;28;20103;-66
2021/05/25 01:23:51;;;;;;;4.40;3.17;;;10.20;99.90;;;;;;5049375;28;20080;-66
2021/05/25 01:26:21;;;;;;;4.22;2.90;;;10.20;99.90;;;;;;5051418;28;20558;-66
2021/05/25 01:28:50;;;;;;;3.30;2.80;;;10.10;99.90;;;;;;5050083;28;20057;-66
2021/05/25 01:31:17;;;;;;;5.05;3.05;;;10.10;99.90;;;;;;5051232;28;20045;-66
2021/05/25 01:33:45;;;;;;;5.03;2.92;;;10.10;99.90;;;;;;5062513;28;20068;-66
2021/05/25 01:36:14;;;;;;;4.55;2.88;;;10.10;99.90;;;;;;5051701;28;20052;-67
2021/05/25 01:38:52;;;;;;;3.55;2.80;;;10.00;99.90;;;;;;5062708;28;20068;-66
2021/05/25 01:41:19;;;;;;;3.60;2.97;;;10.00;99.90;;;;;;5050862;28;20554;-66
2021/05/25 01:43:58;;;;;;;3.83;2.90;;;10.00;99.90;;;;;;5046497;28;20370;-66
2021/05/25 01:46:25;;;;;;;3.38;2.92;;;10.00;99.90;;;;;;5050049;28;20045;-66
2021/05/25 01:48:53;;;;;;;3.45;2.95;;;10.00;99.90;;;;;;5049336;28;20049;-66
2021/05/25 01:51:20;;;;;;;4.47;3.28;;;10.00;99.90;;;;;;5048752;28;20045;-66
2021/05/25 01:53:48;;;;;;;3.25;2.72;;;10.00;99.90;;;;;;5047759;28;20057;-66
2021/05/25 01:56:16;;;;;;;6.45;2.90;;;10.00;99.90;;;;;;5048186;28;20229;-67
2021/05/25 01:58:44;;;;;;;4.28;3.00;;;10.00;99.90;;;;;;5048005;28;20434;-67
2021/05/25 02:01:14;;;;;;;5.95;3.05;;;10.00;99.90;;;;;;5046524;28;20042;-67
2021/05/25 02:03:42;;;;;;;3.53;2.78;;;10.00;99.90;;;;;;5050912;28;20415;-67
2021/05/25 02:06:10;;;;;;;3.45;2.85;;;9.90;99.90;;;;;;5049368;28;20052;-67
2021/05/25 02:08:39;;;;;;;3.10;2.78;;;9.90;99.90;;;;;;5050708;28;20503;-67
2021/05/25 02:11:10;;;;;;;3.38;2.80;;;9.80;99.90;;;;;;5024698;28;20084;-67
2021/05/25 02:13:39;;;;;;;3.47;2.80;;;9.80;99.90;;;;;;5046918;28;20049;-67
2021/05/25 02:16:15;;;;;;;3.47;2.67;;;9.90;99.90;;;;;;5050001;28;20056;-67
2021/05/25 02:18:47;;;;;;;3.88;3.03;;;9.80;99.90;;;;;;5049680;28;20037;-67
2021/05/25 02:21:17;;;;;;;5.05;3.00;;;9.80;99.90;;;;;;5048430;28;20136;-67
2021/05/25 02:23:46;;;;;;;4.95;2.80;;;9.80;99.90;;;;;;5042093;28;20038;-67
2021/05/25 02:26:14;;;;;;;6.10;2.90;;;9.70;99.90;;;;;;5048682;28;20041;-67
2021/05/25 02:28:42;;;;;;;3.55;2.95;;;9.70;99.90;;;;;;5049425;28;20099;-67
2021/05/25 02:31:11;;;;;;;4.95;3.00;;;9.70;99.90;;;;;;5048187;28;20437;-67
2021/05/25 02:33:39;;;;;;;6.38;3.00;;;9.70;99.90;;;;;;5049801;28;20061;-66
2021/05/25 02:36:07;;;;;;;3.45;2.83;;;9.60;99.90;;;;;;5051437;28;20499;-66
2021/05/25 02:38:34;;;;;;;3.30;2.65;;;9.60;99.90;;;;;;5049149;28;20127;-66
2021/05/25 02:41:02;;;;;;;6.10;2.90;;;9.60;99.90;;;;;;5049924;28;20056;-66
2021/05/25 02:43:30;;;;;;;3.63;2.80;;;9.60;99.90;;;;;;5045162;28;20114;-66
2021/05/25 02:45:58;;;;;;;3.67;2.75;;;9.50;99.90;;;;;;5050229;28;20049;-66
2021/05/25 02:48:26;;;;;;;4.82;3.08;;;9.50;99.90;;;;;;5049943;28;20053;-66
2021/05/25 02:50:54;;;;;;;6.30;3.20;;;9.50;99.90;;;;;;5049616;28;20194;-67
2021/05/25 02:53:22;;;;;;;5.28;2.75;;;9.40;99.90;;;;;;5048718;28;20045;-67
2021/05/25 02:55:50;;;;;;;6.65;3.85;;;9.40;99.90;;;;;;5050358;28;20422;-67
2021/05/25 02:58:17;;;;;;;4.68;3.30;;;9.40;99.90;;;;;;5046696;28;20091;-67
2021/05/25 03:00:46;;;;;;;4.25;3.20;;;9.40;99.90;;;;;;5048520;28;20136;-67
2021/05/25 03:03:14;;;;;;;3.88;3.22;;;9.40;99.90;;;;;;5046532;28;20458;-67
2021/05/25 03:05:43;;;;;;;5.00;3.20;;;9.30;99.90;;;;;;5048296;28;20110;-67
2021/05/25 03:08:12;;;;;;;3.50;3.03;;;9.30;99.90;;;;;;5012791;28;20053;-67
2021/05/25 03:10:43;;;;;;;4.82;3.65;;;9.30;99.90;;;;;;5049087;28;20041;-67
2021/05/25 03:13:11;;;;;;;4.85;3.60;;;9.40;99.90;;;;;;5043598;28;20049;-67
2021/05/25 03:15:41;;;;;;;4.10;3.42;;;9.30;99.90;;;;;;5048157;28;20465;-67
2021/05/25 03:18:10;;;;;;;3.67;3.25;;;9.30;99.90;;;;;;5046482;28;20126;-67
2021/05/25 03:20:39;;;;;;;4.65;3.25;;;9.20;99.90;;;;;;5049624;28;20203;-67
2021/05/25 03:23:07;;;;;;;4.18;3.20;;;9.20;99.90;;;;;;5047577;28;20253;-67
2021/05/25 03:25:35;;;;;;;3.58;3.00;;;9.20;99.90;;;;;;5050445;28;20080;-67
2021/05/25 03:28:04;;;;;;;3.70;3.30;;;9.10;99.90;;;;;;5049409;28;20049;-67
2021/05/25 03:30:31;;;;;;;3.53;3.10;;;9.20;99.90;;;;;;5059868;28;20060;-67
2021/05/25 03:32:59;;;;;;;3.75;3.40;;;9.10;99.90;;;;;;5048504;28;20052;-67
2021/05/25 03:35:27;;;;;;;4.25;3.20;;;9.10;99.90;;;;;;5047601;28;20541;-67
2021/05/25 03:37:55;;;;;;;4.20;3.40;;;9.10;99.90;;;;;;5048482;28;20045;-67
2021/05/25 03:40:24;;;;;;;3.83;3.22;;;9.10;99.90;;;;;;5048864;28;20048;-67
2021/05/25 03:42:53;;;;;;;5.53;3.53;;;9.00;99.90;;;;;;5065338;28;20049;-67
2021/05/25 03:45:22;;;;;;;4.00;3.20;;;9.00;99.90;;;;;;5047317;28;20041;-67
2021/05/25 03:47:49;;;;;;;4.60;3.20;;;9.10;99.90;;;;;;5047648;28;20048;-66
2021/05/25 03:50:18;;;;;;;4.00;3.00;;;9.10;99.90;;;;;;5046715;28;20052;-67
2021/05/25 03:52:54;;;;;;;5.82;3.40;;;9.00;99.90;;;;;;5029910;28;20040;-67
2021/05/25 04:00:52;;;;;;;3.85;3.10;;;8.90;99.90;;;;;;5046293;28;20048;-67
2021/05/25 04:03:20;;;;;;;5.80;3.70;;;8.90;99.90;;;;;;5047268;28;20040;-67
2021/05/25 04:05:47;;;;;;;4.95;2.80;;;8.90;99.90;;;;;;5050331;28;20111;-67
2021/05/25 04:08:17;;;;;;;5.50;3.40;;;8.90;99.90;;;;;;5047859;28;20049;-67
2021/05/25 04:10:45;;;;;;;7.13;3.10;;;8.90;99.90;;;;;;5046240;28;20045;-67
2021/05/25 04:13:14;;;;;;;7.55;3.35;;;8.80;99.90;;;;;;5030648;28;20622;-67
2021/05/25 04:15:48;;;;;;;3.92;2.90;;;8.80;99.90;;;;;;5049255;28;20057;-66
2021/05/25 04:18:16;;;;;;;4.05;2.80;;;8.80;99.90;;;;;;5046371;28;20491;-66
2021/05/25 04:20:43;;;;;;;4.30;3.28;;;8.80;99.90;;;;;;5049690;28;20040;-66
2021/05/25 04:23:11;;;;;;;3.60;3.13;;;8.80;99.90;;;;;;5047463;28;20179;-66
2021/05/25 04:25:39;;;;;;;6.22;3.53;;;8.80;99.90;;;;;;5046309;28;20130;-66
2021/05/25 04:28:06;;;;;;;3.40;3.10;;;8.90;99.90;;;;;;5046799;28;20053;-66
2021/05/25 04:30:34;;;;;;;5.18;3.70;;;8.90;99.90;;;;;;5047344;28;20045;-66
2021/05/25 04:33:02;;;;;;;4.63;3.40;;;9.00;99.90;;;;;;5048881;28;20057;-66
2021/05/25 04:35:30;;;;;;;4.78;3.20;;;9.00;99.90;;;;;;5048471;28;20131;-66
2021/05/25 04:37:58;;;;;;;6.10;3.05;;;9.10;99.90;;;;;;5050711;28;20052;-66
2021/05/25 04:40:25;;;;;;;4.35;3.30;;;9.10;99.90;;;;;;5050038;28;20484;-66
2021/05/25 04:42:54;;;;;;;3.92;3.10;;;9.20;99.90;;;;;;5050948;28;20049;-66
2021/05/25 04:45:22;;;;;;;6.05;3.40;;;9.20;99.90;;;;;;5034097;28;20388;-67
2021/05/25 04:47:49;;;;;;;4.82;3.30;;;9.20;99.90;;;;;;5049407;28;20091;-66
2021/05/25 04:50:18;;;;;;;6.72;3.40;;;9.30;99.90;;;;;;5049544;28;20442;-67
2021/05/25 04:52:47;;;;;;;4.95;3.60;;;9.30;99.90;;;;;;5053064;28;20146;-66
2021/05/25 04:55:17;;;;;;;7.00;3.53;;;9.40;99.90;;;;;;5051544;28;20049;-66
2021/05/25 04:57:49;;;;;;;3.58;3.22;;;9.40;99.90;;;;;;5052708;28;20049;-67
2021/05/25 05:00:22;;;;;;;4.25;3.40;;;9.40;99.90;;;;;;5050535;28;20059;-66
2021/05/25 05:02:50;;;;;;;3.92;3.38;;;9.40;99.90;;;;;;5046932;28;20495;-67
2021/05/25 05:05:18;;;;;;;4.82;3.50;;;9.40;99.90;;;;;;5052886;28;20131;-67
2021/05/25 05:07:47;;;;;;;3.60;3.10;;;9.40;99.90;;;;;;5051473;28;20071;-67
2021/05/25 05:10:15;;;;;;;5.95;3.25;;;9.50;99.90;;;;;;5064980;28;20103;-68
2021/05/25 05:12:42;;;;;;;4.40;3.40;;;9.50;99.90;;;;;;5052695;28;20063;-67
2021/05/25 05:15:10;;;;;;;7.10;3.63;;;9.60;99.90;;;;;;5052152;28;20099;-68
2021/05/25 05:17:38;;;;;;;6.60;4.60;;;9.70;99.90;;;;;;5034792;28;20099;-68
2021/05/25 05:20:10;;;;;;;6.13;4.47;;;9.80;99.90;;;;;;5048600;28;20511;-68
2021/05/25 05:22:38;;;;;;;4.32;3.28;;;9.90;99.90;;;;;;5049928;28;20045;-68
2021/05/25 05:25:07;;;;;;;6.22;3.63;;;10.00;99.90;;;;;;5029894;28;20073;-68
2021/05/25 05:27:35;;;;;;;6.72;4.20;;;10.20;99.90;;;;;;5051975;28;20033;-67
2021/05/25 05:30:04;;;;;;;6.00;3.85;;;10.30;99.90;;;;;;5052327;28;20049;-67
2021/05/25 05:32:31;;;;;;;7.70;4.00;;;10.20;99.90;;;;;;5052301;28;20048;-67
2021/05/25 05:35:00;;;;;;;5.03;4.00;;;10.10;99.90;;;;;;5050367;28;20060;-67
2021/05/25 05:37:27;;;;;;;4.53;3.85;;;10.10;99.90;;;;;;5048086;28;20162;-67
2021/05/25 05:39:55;;;;;;;4.68;4.20;;;10.10;99.90;;;;;;5049409;28;20080;-67
2021/05/25 05:42:22;;;;;;;6.00;4.18;;;10.10;99.90;;;;;;5049084;28;20763;-67
2021/05/25 05:44:50;;;;;;;4.70;4.20;;;10.30;99.90;;;;;;5032156;28;20127;-67
2021/05/25 05:47:18;;;;;;;7.63;4.30;;;10.40;99.90;;;;;;5048777;28;20048;-67
2021/05/25 05:49:46;;;;;;;9.90;4.85;;;10.40;99.90;;;;;;5044299;28;20053;-67
2021/05/25 05:52:13;;;;;;;4.13;3.72;;;10.40;99.90;;;;;;5048351;28;20574;-67
2021/05/25 05:54:40;;;;;;;4.97;4.10;;;10.40;99.90;;;;;;5049947;28;20049;-68
2021/05/25 05:57:08;;;;;;;3.83;3.50;;;10.40;99.90;;;;;;5051816;28;20067;-68
2021/05/25 05:59:36;;;;;;;4.18;3.63;;;10.60;99.90;;;;;;5052035;28;20116;-68
2021/05/25 06:02:04;;;;;;;5.82;4.22;;;10.60;99.90;;;;;;5052861;28;20076;-68
2021/05/25 06:04:31;;;;;;;6.70;4.13;;;10.70;99.90;;;;;;5049974;28;20077;-68
2021/05/25 06:06:58;;;;;;;6.03;4.60;;;10.80;99.90;;;;;;5048214;28;20400;-67
2021/05/25 06:09:26;;;;;;;5.40;4.80;;;11.00;99.90;;;;;;5051665;28;20060;-68
2021/05/25 06:11:53;;;;;;;4.85;4.45;;;10.90;99.90;;;;;;5048638;28;20523;-68
2021/05/25 06:14:21;;;;;;;5.90;4.45;;;10.90;99.90;;;;;;5051578;28;20132;-68
2021/05/25 06:16:49;;;;;;;6.28;4.35;;;10.80;99.90;;;;;;5051871;28;20059;-68
2021/05/25 06:19:16;;;;;;;4.97;4.53;;;10.60;99.90;;;;;;5050137;28;20537;-68
2021/05/25 06:21:43;;;;;;;5.00;4.30;;;10.70;99.90;;;;;;5046232;28;20036;-67
2021/05/25 06:24:13;;;;;;;5.18;4.47;;;10.70;99.90;;;;;;5048645;28;20045;-67
2021/05/25 06:26:40;;;;;;;5.05;4.20;;;10.60;99.90;;;;;;5046418;28;20094;-67
2021/05/25 06:29:08;;;;;;;5.25;4.28;;;10.60;99.90;;;;;;5048615;28;20128;-67
2021/05/25 06:31:36;;;;;;;4.90;4.40;;;10.50;99.90;;;;;;5044990;28;20049;-67
2021/05/25 06:34:03;;;;;;;6.30;4.50;;;10.60;99.90;;;;;;5045153;28;20067;-67
2021/05/25 06:36:31;;;;;;;10.88;4.63;;;10.70;99.90;;;;;;5047660;28;20068;-67
2021/05/25 06:39:05;;;;;;;11.10;4.50;;;10.70;99.90;;;;;;5050463;28;20052;-67
2021/05/25 06:41:33;;;;;;;8.05;4.78;;;10.70;99.90;;;;;;5047542;28;20041;-67
2021/05/25 06:44:00;;;;;;;5.28;4.30;;;10.70;99.90;;;;;;5046107;28;20053;-67
2021/05/25 06:46:27;;;;;;;5.72;5.13;;;10.70;99.90;;;;;;5049842;28;20053;-68
2021/05/25 06:48:55;;;;;;;4.80;4.40;;;10.90;99.90;;;;;;5049313;28;20088;-68
2021/05/25 06:51:25;;;;;;;5.20;4.70;;;11.00;99.90;;;;;;5050127;28;20473;-68
2021/05/25 06:53:52;;;;;;;4.60;4.20;;;11.10;99.90;;;;;;5043591;28;20065;-68
2021/05/25 06:56:20;;;;;;;5.20;4.70;;;11.40;99.90;;;;;;5048741;28;20426;-68
2021/05/25 06:58:47;;;;;;;5.28;4.75;;;11.50;99.90;;;;;;5047925;28;20087;-67
2021/05/25 07:01:15;;;;;;;5.57;4.75;;;11.50;99.90;;;;;;5064449;28;20053;-68
2021/05/25 07:03:42;;;;;;;5.78;4.90;;;11.50;99.90;;;;;;5046285;28;20033;-69
2021/05/25 07:06:10;;;;;;;5.80;5.20;;;11.60;99.90;;;;;;5022618;28;20057;-68
2021/05/25 07:08:37;;;;;;;5.93;4.82;;;11.70;99.90;;;;;;5048706;28;20076;-68
2021/05/25 07:11:04;;;;;;;5.40;4.97;;;11.80;99.90;;;;;;5046197;28;20210;-68
2021/05/25 07:13:32;;;;;;;5.75;5.18;;;11.60;99.90;;;;;;5045126;28;20076;-67
2021/05/25 07:15:59;;;;;;;5.78;5.13;;;11.60;99.90;;;;;;5049056;28;20079;-68
2021/05/25 07:18:26;;;;;;;5.47;4.97;;;11.50;99.90;;;;;;5045781;28;20053;-68
2021/05/25 07:20:54;;;;;;;7.68;5.30;;;11.70;99.90;;;;;;5048662;28;20112;-67
2021/05/25 07:23:21;;;;;;;5.80;5.28;;;11.80;99.90;;;;;;5049397;28;20049;-67
2021/05/25 07:25:58;;;;;;;5.90;4.95;;;11.90;99.90;;;;;;5049891;28;20052;-68
2021/05/25 07:28:25;;;;;;;6.28;5.68;;;11.80;99.90;;;;;;5047289;28;20049;-69
2021/05/25 07:30:52;;;;;;;5.90;5.40;;;11.80;99.90;;;;;;5025268;28;20051;-68
2021/05/25 07:33:20;;;;;;;8.38;5.45;;;11.60;99.90;;;;;;5044910;28;20499;-68
2021/05/25 07:35:47;;;;;;;8.65;5.15;;;11.70;99.90;;;;;;5043937;28;20478;-67
2021/05/25 07:38:14;;;;;;;5.97;5.20;;;11.70;99.90;;;;;;5047343;28;20044;-68
2021/05/25 07:40:42;;;;;;;6.95;5.50;;;11.50;99.90;;;;;;5046512;28;20430;-69
2021/05/25 07:43:10;;;;;;;5.78;5.25;;;11.50;99.90;;;;;;5043584;28;20049;-68
2021/05/25 07:45:38;;;;;;;5.88;5.20;;;11.60;99.90;;;;;;5050008;28;20049;-68
2021/05/25 07:48:05;;;;;;;6.10;5.00;;;11.50;99.90;;;;;;5048151;28;20178;-67
2021/05/25 07:50:33;;;;;;;5.32;4.90;;;11.60;99.90;;;;;;5031825;28;20496;-67
2021/05/25 07:53:01;;;;;;;5.90;5.30;;;11.60;99.90;;;;;;5044549;28;20052;-68
2021/05/25 07:55:31;;;;;;;5.00;4.60;;;11.70;99.90;;;;;;5048673;28;20563;-68
2021/05/25 07:58:00;;;;;;;6.97;5.35;;;11.70;99.90;;;;;;5047317;28;20060;-68
2021/05/25 08:00:29;;;;;;;5.75;5.30;;;11.90;99.90;;;;;;5044428;28;20033;-68
2021/05/25 08:02:57;;;;;;;6.10;5.50;;;12.00;99.90;;;;;;5045042;28;20052;-68
2021/05/25 08:05:25;;;;;;;6.30;5.80;;;12.00;99.90;;;;;;5047732;28;20064;-67
2021/05/25 08:07:52;;;;;;;6.20;5.70;;;12.10;99.90;;;;;;5047120;28;20135;-67
2021/05/25 08:10:20;;;;;;;5.80;5.40;;;12.10;99.90;;;;;;5047948;28;20503;-68
2021/05/25 08:12:49;;;;;;;7.82;5.70;;;12.20;99.90;;;;;;5047831;28;20098;-68
2021/05/25 08:15:18;;;;;;;5.90;5.43;;;12.30;99.90;;;;;;5045510;28;20056;-68
2021/05/25 08:20:20;;;;;;;5.57;5.18;;;12.10;99.90;;;;;;5063296;28;20043;-68
2021/05/25 08:23:10;;;;;;;6.05;5.50;;;12.30;99.90;;;;;;5046048;28;20068;-68
2021/05/25 08:25:41;;;;;;;6.20;5.70;;;12.10;99.90;;;;;;5047506;28;20063;-67
2021/05/25 08:28:11;;;;;;;6.65;6.05;;;12.10;99.90;;;;;;5049505;28;20052;-68
2021/05/25 08:30:41;;;;;;;6.13;5.60;;;12.10;99.90;;;;;;5046566;28;20055;-67
2021/05/25 08:33:13;;;;;;;6.13;5.65;;;12.20;99.90;;;;;;5045977;28;20052;-68
2021/05/25 08:35:44;;;;;;;6.45;5.70;;;12.50;99.90;;;;;;5047320;28;20582;-68
2021/05/25 08:38:14;;;;;;;6.22;5.82;;;12.70;99.90;;;;;;5029726;28;20049;-68
2021/05/25 08:40:43;;;;;;;6.35;5.90;;;12.90;99.90;;;;;;5047660;28;20041;-67
2021/05/25 08:43:11;;;;;;;6.90;6.40;;;12.80;99.90;;;;;;5047602;28;20065;-68
2021/05/25 08:45:38;;;;;;;6.20;5.80;;;12.80;99.90;;;;;;5046798;28;20412;-68
2021/05/25 08:48:07;;;;;;;6.40;5.90;;;12.70;99.90;;;;;;5040574;28;20049;-70
2021/05/25 08:51:00;;;;;;;6.22;5.72;;;12.70;99.90;;;;;;5045908;28;20040;-69
2021/05/25 08:53:28;;;;;;;6.90;6.20;;;12.70;99.90;;;;;;5047274;28;20083;-68
2021/05/25 08:55:57;;;;;;;6.50;6.00;;;12.90;99.90;;;;;;5043629;28;20061;-67
2021/05/25 08:58:25;;;;;;;6.97;6.38;;;13.30;99.90;;;;;;5044061;28;20053;-67
2021/05/25 09:00:55;;;;;;;6.78;6.00;;;13.60;99.90;;;;;;5048241;28;20051;-68
2021/05/25 09:03:23;;;;;;;6.55;6.05;;;13.70;99.90;;;;;;5047603;28;20053;-67
2021/05/25 09:06:07;;;;;;;6.85;6.25;;;13.40;99.90;;;;;;5046031;28;20130;-68
2021/05/25 09:08:36;;;;;;;7.00;6.40;;;13.10;99.90;;;;;;5044659;28;20419;-67
2021/05/25 09:11:07;;;;;;;6.40;5.80;;;12.90;99.90;;;;;;5049195;28;20071;-67
2021/05/25 09:13:35;;;;;;;6.40;5.80;;;12.60;99.90;;;;;;5045515;28;20052;-67
2021/05/25 09:16:07;;;;;;;6.40;5.90;;;12.40;99.90;;;;;;5048928;28;20438;-67
2021/05/25 09:18:47;;;;;;;6.15;5.55;;;12.10;99.90;;;;;;5047254;28;20053;-68
2021/05/25 09:21:29;;;;;;;7.13;5.88;;;12.10;99.90;;;;;;5031178;28;20661;-67
2021/05/25 09:23:56;;;;;;;;;;;12.00;99.90;;;;;;5047461;28;20064;-68
2021/05/25 09:26:32;;;;;;;5.80;5.22;;;11.80;99.90;;;;;;5052527;28;20318;-67
2021/05/25 09:29:07;;;;;;;5.68;5.18;;;11.90;99.90;;;;;;5052856;28;20178;-68
2021/05/25 09:31:51;;;;;;;5.70;5.30;;;11.90;99.90;;;;;;5047422;28;20041;-68
2021/05/25 09:34:21;;;;;;;5.80;5.40;;;12.00;99.90;;;;;;5065886;28;20042;-68
2021/05/25 09:37:03;;;;;;;6.20;5.60;;;12.40;99.90;;;;;;5050763;28;20049;-67
2021/05/25 09:39:48;;;;;;;5.78;5.38;;;13.00;99.90;;;;;;5047119;28;20045;-67
2021/05/25 09:42:19;;;;;;;6.00;5.50;;;13.30;99.90;;;;;;5048339;28;20044;-67
2021/05/25 09:45:03;;;;;;;6.25;5.75;;;13.20;99.90;;;;;;5050582;28;20136;-67
2021/05/25 09:47:53;;;;;;;;;;;13.00;99.90;;;;;;5050748;28;20037;-68
2021/05/25 09:50:25;;;;;;;6.10;5.60;;;13.30;99.90;;;;;;5049914;28;19959;-68
2021/05/25 09:53:20;;;;;;;;;;;13.40;99.90;;;;;;5050724;28;20053;-68
2021/05/25 09:55:48;;;;;;;5.85;5.40;;;13.50;99.90;;;;;;5048895;28;19921;-68
2021/05/25 09:58:16;;;;;;;6.68;5.57;;;13.70;99.90;;;;;;5048417;28;20049;-68
2021/05/25 10:00:46;;;;;;;6.45;5.80;;;13.80;99.90;;;;;;5049675;28;20037;-68
2021/05/25 10:03:21;;;;;;;6.40;5.80;;;13.80;99.90;;;;;;5051659;28;20044;-68
2021/05/25 10:05:54;;;;;;;6.55;5.95;;;13.30;99.90;;;;;;5048588;28;20805;-68
2021/05/25 10:08:24;;;;;;;6.07;5.60;;;13.30;99.90;;;;;;5048987;28;20060;-68
2021/05/25 10:10:53;;;;;;;6.45;5.85;;;13.30;99.90;;;;;;5049693;28;20083;-68
2021/05/25 10:13:23;;;;;;;10.50;5.78;;;13.20;99.90;;;;;;5050181;28;20131;-68
2021/05/25 10:15:52;;;;;;;8.52;5.60;;;13.10;99.90;;;;;;5051985;28;20072;-68
2021/05/25 10:18:48;;;;;;;6.30;5.75;;;13.30;99.90;;;;;;5031137;28;20049;-67
2021/05/25 10:21:15;;;;;;;5.80;5.40;;;13.60;99.90;;;;;;5047197;28;20096;-68
2021/05/25 10:23:43;;;;;;;6.68;6.15;;;13.90;99.90;;;;;;5043547;28;20045;-68
2021/05/25 10:26:17;;;;;;;6.45;5.85;;;14.00;99.90;;;;;;5048933;28;20037;-68
2021/05/25 10:28:50;;;;;;;7.05;5.85;;;13.70;99.90;;;;;;5050103;28;20087;-67
2021/05/25 10:31:35;;;;;;;6.43;5.85;;;13.20;99.90;;;;;;5050339;28;20396;-68
2021/05/25 10:34:12;;;;;;;5.95;5.47;;;12.90;99.90;;;;;;5047774;28;20537;-69
2021/05/25 10:37:02;;;;;;;6.32;5.80;;;12.50;99.90;;;;;;5045864;28;20048;-68
2021/05/25 10:39:32;;;;;;;5.78;5.30;;;12.20;99.90;;;;;;5049624;28;20637;-69
2021/05/25 10:42:28;;;;;;;5.88;5.18;;;12.40;99.90;;;;;;5046720;28;20953;-68
2021/05/25 10:45:16;;;;;;;6.00;5.40;;;12.40;99.90;;;;;;5046604;28;20041;-68
2021/05/25 10:48:04;;;;;;;5.93;5.40;;;12.60;99.90;;;;;;5048363;28;20041;-68
2021/05/25 10:50:37;;;;;;;5.50;5.00;;;12.80;99.90;;;;;;5047939;28;20530;-69
2021/05/25 10:53:06;;;;;;;6.38;5.50;;;13.20;99.90;;;;;;5048515;28;20140;-68
2021/05/25 10:55:38;;;;;;;5.70;5.25;;;13.30;99.90;;;;;;5046087;28;20144;-69
2021/05/25 10:58:18;;;;;;;6.30;5.80;;;13.20;99.90;;;;;;5050100;28;20118;-69
2021/05/25 11:00:46;;;;;;;8.07;6.72;;;12.20;99.90;;;;;;5050757;28;20140;-69
2021/05/25 11:03:26;;;;;;;5.35;4.90;;;10.60;99.90;;;;;;5046519;28;20041;-68
2021/05/25 11:06:00;;;;;;;7.93;4.57;;;10.10;99.90;;;;;;5045497;28;20111;-69
2021/05/25 11:08:29;;;;;;;4.38;3.97;;;10.00;99.90;;;;;;5049292;28;20488;-68
2021/05/25 11:11:04;;;;;;;7.15;4.63;;;10.50;99.90;;;;;;5048666;28;20051;-69
2021/05/25 11:13:53;;;;;;;6.72;4.00;;;11.20;99.90;;;;;;5049490;28;20102;-69
2021/05/25 11:16:35;;;;;;;5.80;4.53;;;11.90;99.90;;;;;;5062754;28;20393;-68
2021/05/25 11:19:08;;;;;;;4.82;4.20;;;12.20;99.90;;;;;;5030828;28;20054;-69
2021/05/25 11:27:00;;;;;;;4.60;4.25;;;12.10;99.90;;;;;;5050813;28;20659;-69
2021/05/25 11:29:29;;;;;;;5.80;4.82;;;12.50;99.90;;;;;;5063528;28;20072;-67
2021/05/25 11:31:59;;;;;;;5.20;4.78;;;12.80;99.90;;;;;;5050676;28;20103;-68
2021/05/25 11:34:28;;;;;;;7.35;5.10;;;13.40;99.90;;;;;;5047693;28;20053;-68
2021/05/25 11:37:03;;;;;;;5.75;5.20;;;13.50;99.90;;;;;;5046530;28;20510;-68
2021/05/25 11:39:35;;;;;;;5.43;5.00;;;13.50;99.90;;;;;;5045339;28;20309;-68
2021/05/25 11:42:05;;;;;;;11.32;5.32;;;13.80;99.90;;;;;;5060938;28;20828;-68
2021/05/25 11:44:41;;;;;;;5.95;5.45;;;13.80;99.90;;;;;;5040054;28;20064;-68
2021/05/25 11:47:10;;;;;;;6.53;5.68;;;14.00;99.90;;;;;;5046304;28;20120;-68
2021/05/25 11:49:37;;;;;;;7.93;5.60;;;14.10;99.90;;;;;;5045201;28;20045;-67
2021/05/25 11:52:24;;;;;;;7.53;5.90;;;14.10;99.90;;;;;;5048786;28;20060;-68
2021/05/25 11:55:03;;;;;;;6.43;5.82;;;14.50;99.90;;;;;;5043648;28;20483;-69
2021/05/25 11:57:39;;;;;;;6.80;6.25;;;14.60;99.90;;;;;;5047976;28;20527;-68
2021/05/25 12:00:11;;;;;;;9.57;6.47;;;14.40;99.90;;;;;;5045919;28;20047;-67
2021/05/25 12:02:40;;;;;;;10.05;6.57;;;14.20;99.90;;;;;;5048287;28;20056;-69
2021/05/25 12:24:43;;;;;;;8.98;6.78;;;14.20;99.90;;;;;;5089174;28;20474;-68
2021/05/25 12:27:11;;;;;;;7.18;6.35;;;14.20;99.90;;;;;;5088424;28;20044;-68
2021/05/25 12:29:38;;;;;;;7.85;7.05;;;14.40;99.90;;;;;;5088671;28;20052;-68
2021/05/25 12:32:09;;;;;;;7.40;6.68;;;14.70;99.90;;;;;;5086480;28;20044;-68
2021/05/25 12:34:36;;;;;;;7.20;6.60;;;14.80;99.90;;;;;;5087826;28;20423;-68
2021/05/25 12:37:03;;;;;;;8.05;6.80;;;14.90;99.90;;;;;;5068469;28;20052;-69
2021/05/25 12:39:37;;;;;;;7.35;6.78;;;14.50;99.90;;;;;;5054481;28;20121;-68
2021/05/25 12:42:13;;;;;;;10.40;6.90;;;14.00;99.90;;;;;;5084020;28;20060;-68
2021/05/25 12:44:40;;;;;;;7.30;6.57;;;14.00;99.90;;;;;;5062685;28;20040;-69
2021/05/25 12:47:10;;;;;;;7.22;6.50;;;14.00;99.90;;;;;;5067337;28;20048;-68
2021/05/25 12:49:51;;;;;;;7.07;6.43;;;14.00;99.90;;;;;;5083804;28;20044;-69
2021/05/25 12:52:32;;;;;;;6.93;6.43;;;14.10;99.90;;;;;;5088895;28;20082;-67
2021/05/25 12:55:09;;;;;;;7.00;6.40;;;13.70;99.90;;;;;;5081088;28;20048;-68
2021/05/25 12:57:56;;;;;;;9.77;7.03;;;13.40;99.90;;;;;;5087804;28;20058;-68
2021/05/25 13:00:35;;;;;;;7.30;6.53;;;12.90;99.90;;;;;;5090317;28;20102;-68
2021/05/25 13:03:05;;;;;;;7.55;6.85;;;12.80;99.90;;;;;;5058413;28;20040;-68
2021/05/25 13:05:43;;;;;;;6.70;6.20;;;12.70;99.90;;;;;;5074153;28;20047;-67
2021/05/25 13:08:32;;;;;;;6.85;5.68;;;12.10;99.90;;;;;;5089556;28;20051;-67
2021/05/25 13:11:10;;;;;;;5.85;4.65;;;11.90;99.90;;;;;;5080511;28;20457;-67
2021/05/25 13:13:39;;;;;;;5.93;5.18;;;12.60;99.90;;;;;;5072640;28;20426;-66
2021/05/25 13:16:19;;;;;;;5.57;5.07;;;13.50;99.90;;;;;;5071120;28;20044;-66
2021/05/25 13:18:48;;;;;;;7.45;5.00;;;14.40;99.90;;;;;;5092383;28;20056;-66
2021/05/25 13:21:18;;;;;;;5.45;5.00;;;14.50;99.90;;;;;;5055751;28;20416;-67
2021/05/25 13:24:00;;;;;;;10.73;5.30;;;14.80;99.90;;;;;;5057296;28;20088;-67
2021/05/25 13:26:36;;;;;;;7.30;5.70;;;14.70;99.90;;;;;;5090267;28;20052;-67
2021/05/25 13:29:07;;;;;;;6.32;5.57;;;14.90;99.90;;;;;;5089545;28;20090;-66
2021/05/25 13:31:39;;;;;;;6.50;5.90;;;15.00;99.90;;;;;;5060987;28;20044;-67
2021/05/25 13:34:08;;;;;;;6.35;5.85;;;15.30;99.90;;;;;;5090271;28;20188;-67
2021/05/25 13:36:36;;;;;;;6.30;5.80;;;15.40;99.90;;;;;;5062835;28;20063;-67
2021/05/25 13:39:06;;;;;;;9.25;6.15;;;16.10;99.90;;;;;;5088225;28;20060;-67
2021/05/25 13:41:35;;;;;;;9.35;6.53;;;16.20;99.90;;;;;;5071859;28;20071;-66